»·PEaware :: SWA244 KPHX-KABQ

SWA244 :: KPHX-KABQ

FLIGHT INFORMATION

Flight Status: Arrived
Operator:
Southwest Airlines
More flights by this operator :: More flights under this callsign
Pilot: Patricio R. (14780)
Aircraft: BOEING 737-200
(B732)
More flights by this aircraft type
Origin: KPHX Phoenix Sky Harbor Intl
United States
Destination: KABQ Albuquerque Intl Sunport
United States
More flights between these airports :: More routes between these airports
Route: SJN8 SJN LAVAN3
File this flight plan on PilotEdge
Remarks:
Altitude:
(Current/Filed)
31,000ft
Speed:
(Current/Filed)
442kts
Departed: 20-Apr-18 12:41 PM
Arrived: 20-Apr-18 01:35 PM
Distance/Time
Traveled:
285nm/0:54
Distance/Time
To Go:
Arrived

Flight Plot

Page will automatically refresh every two minutes.


Map Options




Map Legend


Flown Route
Filed Route
Departure Airport
Arrival Airport
Navaid (VOR, NDB)
Fix

Horizontal Profiles

Position Reports

Time Latitude Longitude Heading Altitude Ground
Speed
20-Apr-18 12:25 33.433474 -111.994468 28 1143ft 0kts
20-Apr-18 12:26 33.433474 -111.994468 28 1143ft 0kts
20-Apr-18 12:27 33.433474 -111.994468 28 1143ft 0kts
20-Apr-18 12:28 33.433474 -111.994468 28 1143ft 0kts
20-Apr-18 12:29 33.433474 -111.994468 28 1143ft 0kts
20-Apr-18 12:30 33.433474 -111.994468 28 1143ft 0kts
20-Apr-18 12:31 33.433474 -111.994468 28 1143ft 0kts
20-Apr-18 12:33 33.433474 -111.994468 28 1143ft 0kts
20-Apr-18 12:34 33.433474 -111.994468 28 1143ft 0kts
20-Apr-18 12:35 33.433360 -111.994546 28 1143ft 2kts
20-Apr-18 12:36 33.432876 -111.994939 63 1143ft 2kts
20-Apr-18 12:37 33.432836 -111.995152 90 1143ft 0kts
20-Apr-18 12:38 33.432831 -111.994710 90 1143ft 7kts
20-Apr-18 12:39 33.432083 -111.993458 180 1143ft 0kts
20-Apr-18 12:40 33.431060 -112.001437 269 1143ft 114kts
20-Apr-18 12:41 33.432676 -112.047819 271 2879ft 199kts
20-Apr-18 12:42 33.431797 -112.117957 270 6720ft 223kts
20-Apr-18 12:43 33.456959 -112.183376 346 9757ft 259kts
20-Apr-18 12:44 33.506780 -112.125346 82 12285ft 320kts
20-Apr-18 12:45 33.498694 -112.015221 90 14506ft 340kts
20-Apr-18 12:46 33.489325 -111.901381 90 16610ft 350kts
20-Apr-18 12:47 33.501052 -111.789667 59 18467ft 341kts
20-Apr-18 12:48 33.539834 -111.682742 58 19877ft 360kts
20-Apr-18 12:49 33.581066 -111.570384 57 21184ft 378kts
20-Apr-18 12:50 33.624303 -111.452550 57 22382ft 394kts
20-Apr-18 12:51 33.668652 -111.330979 59 23469ft 410kts
20-Apr-18 12:52 33.722031 -111.182168 59 24658ft 422kts
20-Apr-18 12:53 33.761344 -111.073391 58 25602ft 425kts
20-Apr-18 12:54 33.807848 -110.944808 59 26784ft 424kts
20-Apr-18 12:55 33.855177 -110.813277 59 27511ft 434kts
20-Apr-18 12:56 33.903537 -110.678470 60 28251ft 441kts
20-Apr-18 12:57 33.951701 -110.542962 59 29136ft 444kts
20-Apr-18 12:58 33.997465 -110.403247 62 29774ft 454kts
20-Apr-18 12:59 34.043860 -110.262555 61 30365ft 458kts
20-Apr-18 13:00 34.092645 -110.119838 62 30916ft 461kts
20-Apr-18 13:01 34.142197 -109.978436 62 31107ft 474kts
20-Apr-18 13:02 34.193266 -109.829784 62 31104ft 481kts
20-Apr-18 13:03 34.244258 -109.680151 63 31107ft 483kts
20-Apr-18 13:04 34.295072 -109.529812 63 31057ft 484kts
20-Apr-18 13:05 34.345672 -109.379213 63 31091ft 483kts
20-Apr-18 13:06 34.394696 -109.231349 65 31040ft 482kts
20-Apr-18 13:07 34.439851 -109.078964 78 31052ft 483kts
20-Apr-18 13:08 34.463156 -108.923924 0 31046ft 0kts
20-Apr-18 13:09 34.489646 -108.767221 76 31048ft 482kts
20-Apr-18 13:10 34.516945 -108.608197 77 31051ft 482kts
20-Apr-18 13:11 34.543472 -108.452451 77 30029ft 464kts
20-Apr-18 13:12 34.568248 -108.304227 78 28324ft 446kts
20-Apr-18 13:13 34.592219 -108.159391 80 26533ft 432kts
20-Apr-18 13:14 34.615318 -108.019886 80 24903ft 414kts
20-Apr-18 13:15 34.637536 -107.885633 80 23294ft 398kts
20-Apr-18 13:16 34.658816 -107.756066 79 21646ft 385kts
20-Apr-18 13:17 34.697501 -107.635816 62 19862ft 380kts
20-Apr-18 13:18 34.745595 -107.523945 62 18331ft 368kts
20-Apr-18 13:19 34.790832 -107.417446 61 16883ft 347kts
20-Apr-18 13:20 34.833461 -107.316291 61 15334ft 334kts
20-Apr-18 13:21 34.875555 -107.216418 62 15000ft 335kts
20-Apr-18 13:22 34.918037 -107.115696 62 14997ft 332kts
20-Apr-18 13:23 34.959035 -107.018220 62 14832ft 306kts
20-Apr-18 13:24 34.997321 -106.927041 62 13582ft 298kts
20-Apr-18 13:25 35.034724 -106.837773 62 12269ft 293kts
20-Apr-18 13:26 35.081505 -106.758911 44 10989ft 287kts
20-Apr-18 13:27 35.137433 -106.688985 44 9621ft 287kts
20-Apr-18 13:28 35.187261 -106.618688 78 8590ft 265kts
20-Apr-18 13:29 35.159833 -106.549875 134 7607ft 221kts
20-Apr-18 13:30 35.113597 -106.532321 197 6963ft 152kts
20-Apr-18 13:31 35.080388 -106.559460 228 6385ft 137kts
20-Apr-18 13:32 35.055360 -106.590346 227 5864ft 125kts
20-Apr-18 13:33 35.033123 -106.617471 225 5363ft 61kts
20-Apr-18 13:34 35.030463 -106.622458 341 5363ft 0kts
20-Apr-18 13:35 35.030827 -106.622378 32 5363ft 8kts
20-Apr-18 13:36 35.035153 -106.617174 44 5363ft 29kts
20-Apr-18 13:37 35.040046 -106.613854 359 5363ft 15kts
20-Apr-18 13:38 35.045098 -106.613755 3 5363ft 21kts
20-Apr-18 13:39 35.048049 -106.614224 200 5363ft 5kts
20-Apr-18 13:40 35.047848 -106.614363 210 5363ft 0kts

Navigation Log

Ident Type
1. KPHX Airport
2. SJN Navaid
3. SJN Navaid
4. SJN Navaid
5. IRULY Navaid
6. LAVAN Fix
7. ABQ Navaid
8. KABQ Airport